Time;durP1;ratioP1;P1;durP2;ratioP2;P2;SDS_P1;SDS_P2;PMS_P1;PMS_P2;Temp;Humidity;BMP_temperature;BMP_pressure;BME280_temperature;BME280_humidity;BME280_pressure;Samples;Min_cycle;Max_cycle;Signal;HPM_P1;HPM_P2
2022/05/25 00:01:46;;;;;;;;;;;;;;;14.22;78.10;92358.72;2055687;69;20058;-71
2022/05/25 00:04:12;;;;;;;;;;;;;;;14.09;78.84;92353.91;2055654;70;20061;-70
2022/05/25 00:06:37;;;;;;;;;;;;;;;14.48;75.95;92359.09;2055790;70;20053;-71
2022/05/25 00:09:04;;;;;;;;;;;;;;;14.74;74.77;92355.88;2055657;69;20058;-71
2022/05/25 00:11:29;;;;;;;;;;;;;;;14.60;75.90;92355.28;2068608;69;20047;-70
2022/05/25 00:13:55;;;;;;;;;;;;;;;14.78;74.61;92361.69;2055838;69;20153;-70
2022/05/25 00:16:20;;;;;;;;;;;;;;;14.82;74.72;92356.19;2055653;70;20144;-71
2022/05/25 00:21:30;;;;;;;;;;;;;;;14.88;73.57;92359.25;2055587;69;20050;-70
2022/05/25 00:23:56;;;;;;;;;;;;;;;14.97;73.17;92355.38;2055771;70;20195;-71
2022/05/25 00:26:21;;;;;;;;;;;;;;;14.95;73.68;92348.91;2068812;69;20054;-70
2022/05/25 00:28:47;;;;;;;;;;;;;;;14.64;74.42;92344.13;2055470;70;20541;-70
2022/05/25 00:31:12;;;;;;;;;;;;;;;14.34;77.40;92330.19;2055857;70;20078;-70
2022/05/25 00:33:38;;;;;;;;;;;;;;;14.74;74.96;92336.03;2055506;70;20141;-71
2022/05/25 00:36:04;;;;;;;;;;;;;;;14.73;75.60;92337.41;2055339;70;20061;-70
2022/05/25 00:38:29;;;;;;;;;;;;;;;14.87;73.36;92342.91;2055678;69;20425;-70
2022/05/25 00:40:56;;;;;;;;;;;;;;;14.81;74.23;92337.75;2068704;69;20058;-71
2022/05/25 00:43:22;;;;;;;;;;;;;;;14.80;74.50;92344.78;2055754;69;20074;-71
2022/05/25 00:45:49;;;;;;;;;;;;;;;14.80;74.51;92347.63;2068689;69;20173;-71
2022/05/25 00:48:22;;;;;;;;;;;;;;;14.77;75.09;92345.34;2055544;70;20441;-71
2022/05/25 00:53:32;;;;;;;;;;;;;;;14.87;74.69;92345.75;2055662;70;20062;-71
2022/05/25 00:55:58;;;;;;;;;;;;;;;14.92;73.01;92347.34;2055691;70;20053;-71
2022/05/25 00:58:23;;;;;;;;;;;;;;;14.94;73.17;92353.84;2055617;69;20062;-70
2022/05/25 01:04:17;;;;;;;;;;;;;;;14.87;74.19;92366.31;2055739;69;20045;-71
2022/05/25 01:07:01;;;;;;;;;;;;;;;14.89;72.63;92365.66;2055631;70;20066;-71
2022/05/25 01:09:36;;;;;;;;;;;;;;;14.89;73.38;92374.91;2055437;70;20161;-70
2022/05/25 01:12:09;;;;;;;;;;;;;;;14.85;74.87;92376.84;2055702;70;20042;-70
2022/05/25 01:14:47;;;;;;;;;;;;;;;14.78;73.63;92370.19;2055572;70;20119;-71
2022/05/25 01:17:26;;;;;;;;;;;;;;;14.81;73.69;92363.25;2055648;70;20057;-70
2022/05/25 01:20:20;;;;;;;;;;;;;;;14.86;74.09;92362.03;2055827;70;20065;-71
2022/05/25 01:22:46;;;;;;;;;;;;;;;14.85;74.36;92359.84;2057471;69;20089;-71
2022/05/25 01:25:20;;;;;;;;;;;;;;;14.93;73.58;92365.81;2068270;69;20204;-71
2022/05/25 01:27:46;;;;;;;;;;;;;;;14.96;73.29;92359.59;2055531;70;20063;-71
2022/05/25 01:30:17;;;;;;;;;;;;;;;14.84;74.15;92358.38;2055396;70;20050;-71
2022/05/25 01:33:01;;;;;;;;;;;;;;;14.89;72.99;92359.97;2055170;70;20050;-71
2022/05/25 01:35:46;;;;;;;;;;;;;;;14.22;77.70;92369.31;2055474;70;20058;-70
2022/05/25 01:38:11;;;;;;;;;;;;;;;14.53;76.33;92364.94;2068591;69;20050;-70
2022/05/25 01:40:50;;;;;;;;;;;;;;;14.79;74.01;92356.75;2055345;70;20050;-71
2022/05/25 01:46:47;;;;;;;;;;;;;;;14.74;75.17;92361.53;2055606;69;20484;-70
2022/05/25 01:49:15;;;;;;;;;;;;;;;14.74;73.90;92359.41;2055579;70;20046;-71
2022/05/25 01:51:42;;;;;;;;;;;;;;;14.77;74.21;92365.91;2055222;70;20119;-70
2022/05/25 01:54:09;;;;;;;;;;;;;;;14.77;74.22;92363.06;2055419;69;20038;-71
2022/05/25 01:56:37;;;;;;;;;;;;;;;14.49;73.80;92359.84;2055322;70;20062;-71
2022/05/25 01:59:05;;;;;;;;;;;;;;;14.79;74.07;92363.16;2055512;70;20074;-70
2022/05/25 02:01:34;;;;;;;;;;;;;;;14.91;73.26;92357.97;2055484;70;20479;-70
2022/05/25 02:10:25;;;;;;;;;;;;;;;14.22;76.97;92367.19;2055555;69;20049;-71
2022/05/25 02:12:56;;;;;;;;;;;;;;;14.69;74.46;92376.91;2055557;69;20132;-70
2022/05/25 02:15:22;;;;;;;;;;;;;;;14.46;76.46;92375.25;2055241;70;20173;-71
2022/05/25 02:18:01;;;;;;;;;;;;;;;14.58;74.77;92364.44;2055474;70;20102;-70
2022/05/25 02:20:33;;;;;;;;;;;;;;;14.48;76.19;92367.59;2055095;70;20150;-71
2022/05/25 02:23:04;;;;;;;;;;;;;;;14.29;76.77;92368.16;2055461;69;20062;-71
2022/05/25 02:25:48;;;;;;;;;;;;;;;14.10;79.01;92363.13;2055428;70;20042;-70
2022/05/25 02:28:16;;;;;;;;;;;;;;;14.53;75.84;92365.66;2055237;69;20082;-71
2022/05/25 02:30:44;;;;;;;;;;;;;;;14.44;75.42;92358.91;2055226;70;20053;-70
2022/05/25 02:33:13;;;;;;;;;;;;;;;13.95;79.35;92361.78;2055205;69;20103;-71
2022/05/25 02:35:41;;;;;;;;;;;;;;;13.69;80.51;92364.19;2055247;70;20050;-70
2022/05/25 02:38:07;;;;;;;;;;;;;;;14.30;76.47;92366.09;2055525;69;20050;-71
2022/05/25 02:40:33;;;;;;;;;;;;;;;14.53;76.00;92365.66;2055481;69;20042;-70
2022/05/25 02:46:27;;;;;;;;;;;;;;;14.22;77.35;92363.63;2055454;69;20107;-70
2022/05/25 02:48:53;;;;;;;;;;;;;;;14.54;74.79;92367.13;2055311;70;20527;-70
2022/05/25 02:51:18;;;;;;;;;;;;;;;14.20;76.98;92366.38;2055426;70;20050;-71
2022/05/25 02:53:44;;;;;;;;;;;;;;;14.21;77.04;92374.25;2055298;70;20050;-70
2022/05/25 02:56:10;;;;;;;;;;;;;;;14.15;77.88;92370.41;2055094;70;20474;-70
2022/05/25 02:58:35;;;;;;;;;;;;;;;14.48;74.96;92364.78;2055458;70;20062;-70
2022/05/25 03:04:30;;;;;;;;;;;;;;;14.39;76.61;92367.88;2055294;69;20054;-70
2022/05/25 03:06:55;;;;;;;;;;;;;;;14.51;75.53;92357.06;2055414;69;20574;-70
2022/05/25 03:09:20;;;;;;;;;;;;;;;14.53;75.01;92354.34;2055192;70;20141;-70
2022/05/25 03:11:46;;;;;;;;;;;;;;;14.59;75.04;92357.41;2055190;69;20145;-70
2022/05/25 03:14:11;;;;;;;;;;;;;;;14.53;75.99;92356.44;2055317;70;20056;-70
2022/05/25 03:16:37;;;;;;;;;;;;;;;14.70;73.44;92356.44;2055072;70;20455;-70
2022/05/25 03:22:34;;;;;;;;;;;;;;;13.91;78.62;92368.00;2055273;69;20064;-70
2022/05/25 03:24:59;;;;;;;;;;;;;;;13.71;80.88;92365.03;2055302;70;20054;-71
2022/05/25 03:27:25;;;;;;;;;;;;;;;13.94;79.33;92369.56;2055548;70;20046;-72
2022/05/25 03:29:50;;;;;;;;;;;;;;;14.12;78.44;92377.38;2055498;70;20070;-72
2022/05/25 03:32:16;;;;;;;;;;;;;;;14.31;76.00;92384.53;2055410;70;20533;-71
2022/05/25 03:34:41;;;;;;;;;;;;;;;13.92;79.30;92382.88;2055445;70;20127;-70
2022/05/25 03:37:07;;;;;;;;;;;;;;;14.15;76.78;92385.28;2055509;70;20482;-71
2022/05/25 03:39:33;;;;;;;;;;;;;;;14.33;76.23;92391.00;2055206;70;20498;-69
2022/05/25 03:42:04;;;;;;;;;;;;;;;14.29;75.36;92395.75;2055440;70;20050;-71
2022/05/25 03:44:29;;;;;;;;;;;;;;;14.15;78.58;92384.56;2055468;70;20061;-73
2022/05/25 03:50:30;;;;;;;;;;;;;;;13.93;79.47;92395.69;2055190;69;20052;-70
2022/05/25 03:52:55;;;;;;;;;;;;;;;14.19;76.65;92396.78;2055418;69;20050;-71
2022/05/25 03:55:21;;;;;;;;;;;;;;;14.35;76.62;92399.59;2055343;69;20050;-71
2022/05/25 03:57:46;;;;;;;;;;;;;;;14.11;78.04;92407.03;2068264;69;20100;-71
2022/05/25 04:00:12;;;;;;;;;;;;;;;14.29;77.02;92404.97;2068442;69;20057;-71
2022/05/25 04:02:37;;;;;;;;;;;;;;;14.07;77.77;92404.06;2055425;70;20055;-71
2022/05/25 04:08:31;;;;;;;;;;;;;;;14.51;74.37;92413.72;2056120;69;20053;-70
2022/05/25 04:10:57;;;;;;;;;;;;;;;14.51;76.25;92421.47;2055985;69;20051;-71
2022/05/25 04:13:22;;;;;;;;;;;;;;;14.54;75.32;92420.94;2055952;70;20421;-71
2022/05/25 04:15:47;;;;;;;;;;;;;;;14.43;75.47;92421.84;2056026;70;20057;-71
2022/05/25 04:18:13;;;;;;;;;;;;;;;14.16;76.54;92422.84;2055874;70;20066;-71
2022/05/25 04:20:38;;;;;;;;;;;;;;;13.39;82.04;92435.00;2055913;70;20482;-70
2022/05/25 04:23:08;;;;;;;;;;;;;;;13.80;80.51;92436.13;2056093;69;20088;-70
2022/05/25 04:25:33;;;;;;;;;;;;;;;14.15;76.78;92432.69;2055808;70;20143;-70
2022/05/25 04:27:59;;;;;;;;;;;;;;;13.84;78.50;92439.13;2055481;70;20468;-70
2022/05/25 04:30:26;;;;;;;;;;;;;;;14.13;76.18;92446.75;2055651;70;20486;-70
2022/05/25 04:32:52;;;;;;;;;;;;;;;13.69;78.60;92454.72;2055529;70;20123;-70
2022/05/25 04:35:18;;;;;;;;;;;;;;;13.85;78.48;92455.47;2055665;70;20564;-70
2022/05/25 04:37:49;;;;;;;;;;;;;;;13.90;78.13;92457.09;2068703;69;20161;-71
2022/05/25 04:40:16;;;;;;;;;;;;;;;14.36;74.91;92457.69;2055862;70;20081;-70
2022/05/25 04:42:43;;;;;;;;;;;;;;;14.24;76.55;92460.69;2055754;70;20050;-71
2022/05/25 04:45:09;;;;;;;;;;;;;;;14.24;77.13;92468.47;2055802;69;20092;-70
2022/05/25 04:47:35;;;;;;;;;;;;;;;14.37;74.87;92473.28;2055857;70;20046;-71
2022/05/25 04:50:06;;;;;;;;;;;;;;;14.39;74.19;92472.66;2055732;70;20482;-71
2022/05/25 04:52:36;;;;;;;;;;;;;;;14.51;73.24;92481.69;2055840;70;20145;-71
2022/05/25 04:55:01;;;;;;;;;;;;;;;14.49;74.38;92478.78;2068835;69;20086;-71
2022/05/25 04:57:27;;;;;;;;;;;;;;;14.40;74.46;92488.28;2055813;70;20514;-71
2022/05/25 04:59:53;;;;;;;;;;;;;;;14.45;74.04;92499.13;2068843;69;20137;-70
2022/05/25 05:02:19;;;;;;;;;;;;;;;14.48;73.21;92512.03;2055446;70;20560;-70
2022/05/25 05:04:46;;;;;;;;;;;;;;;14.52;72.13;92519.25;2055658;70;20124;-70
2022/05/25 05:07:12;;;;;;;;;;;;;;;14.52;73.08;92531.28;2055978;70;20062;-70
2022/05/25 05:09:39;;;;;;;;;;;;;;;14.49;75.05;92533.31;2055908;70;20112;-71
2022/05/25 05:12:05;;;;;;;;;;;;;;;14.49;74.14;92536.16;2055790;69;20119;-71
2022/05/25 05:14:31;;;;;;;;;;;;;;;14.49;73.14;92539.00;2055841;69;20050;-70
2022/05/25 05:17:01;;;;;;;;;;;;;;;14.62;72.94;92550.84;2055716;70;20120;-70
2022/05/25 05:19:38;;;;;;;;;;;;;;;14.57;73.70;92552.78;2068458;69;20078;-71
2022/05/25 05:22:10;;;;;;;;;;;;;;;14.60;73.41;92564.91;2068767;69;20051;-71
2022/05/25 05:24:36;;;;;;;;;;;;;;;14.56;71.82;92562.63;2055902;70;20058;-71
2022/05/25 05:27:01;;;;;;;;;;;;;;;14.49;72.10;92575.81;2055684;69;20050;-71
2022/05/25 05:29:30;;;;;;;;;;;;;;;14.55;72.13;92574.63;2055779;69;20482;-71
2022/05/25 05:31:55;;;;;;;;;;;;;;;14.40;74.24;92570.41;2055776;69;20069;-70
2022/05/25 05:34:21;;;;;;;;;;;;;;;14.47;73.68;92581.34;2055600;70;20529;-70
2022/05/25 05:37:07;;;;;;;;;;;;;;;14.37;74.24;92583.00;2055700;70;20145;-70
2022/05/25 05:39:34;;;;;;;;;;;;;;;14.61;73.09;92577.72;2055644;69;20054;-70
2022/05/25 05:42:03;;;;;;;;;;;;;;;14.46;75.59;92582.00;2055698;69;20050;-70
2022/05/25 05:44:31;;;;;;;;;;;;;;;14.44;73.78;92584.75;2068673;69;20053;-70
2022/05/25 05:46:58;;;;;;;;;;;;;;;14.66;73.69;92590.66;2055811;69;20065;-70
2022/05/25 05:49:24;;;;;;;;;;;;;;;14.74;73.27;92600.25;2055618;70;20082;-71
2022/05/25 05:51:50;;;;;;;;;;;;;;;14.56;74.15;92599.47;2055806;70;20054;-71
2022/05/25 05:54:16;;;;;;;;;;;;;;;14.63;74.63;92606.13;2068738;69;20065;-70
2022/05/25 05:56:42;;;;;;;;;;;;;;;14.74;73.35;92611.59;2055749;70;20138;-71
2022/05/25 05:59:07;;;;;;;;;;;;;;;14.63;73.18;92615.38;2055827;70;20153;-71
2022/05/25 06:01:33;;;;;;;;;;;;;;;14.74;75.32;92620.09;2068988;69;20070;-71
2022/05/25 06:03:58;;;;;;;;;;;;;;;14.54;76.20;92622.03;2055592;69;20049;-71
2022/05/25 06:06:24;;;;;;;;;;;;;;;14.46;75.98;92632.97;2055351;70;20094;-70
2022/05/25 06:08:50;;;;;;;;;;;;;;;14.50;75.98;92627.53;2068644;69;20054;-71
2022/05/25 06:11:16;;;;;;;;;;;;;;;14.81;74.60;92637.38;2068611;69;20062;-70
2022/05/25 06:19:54;;;;;;;;;;;;;;;14.98;73.98;92659.38;2055499;70;20147;-70
2022/05/25 06:22:20;;;;;;;;;;;;;;;14.74;74.45;92662.59;2055781;69;20161;-70
2022/05/25 06:24:47;;;;;;;;;;;;;;;14.92;72.35;92653.44;2055607;70;20097;-70
2022/05/25 06:27:13;;;;;;;;;;;;;;;14.78;75.17;92656.38;2055363;70;20116;-71
2022/05/25 06:29:39;;;;;;;;;;;;;;;14.73;75.95;92657.59;2055631;70;20054;-74
2022/05/25 06:32:05;;;;;;;;;;;;;;;14.97;73.75;92655.09;2055669;70;20062;-72
2022/05/25 06:34:31;;;;;;;;;;;;;;;15.07;73.09;92660.47;2055546;69;20054;-71
2022/05/25 06:36:57;;;;;;;;;;;;;;;15.25;71.28;92664.09;2055825;70;20062;-70
2022/05/25 06:39:22;;;;;;;;;;;;;;;15.31;72.32;92667.22;2055825;70;20147;-69
2022/05/25 06:41:47;;;;;;;;;;;;;;;15.21;71.92;92669.59;2055431;70;20204;-69
2022/05/25 06:44:13;;;;;;;;;;;;;;;14.81;74.96;92666.44;2055440;70;20121;-72
2022/05/25 06:46:39;;;;;;;;;;;;;;;14.57;76.53;92680.25;2055559;69;20061;-70
2022/05/25 06:49:05;;;;;;;;;;;;;;;14.61;76.12;92683.25;2055564;69;20130;-69
2022/05/25 06:51:33;;;;;;;;;;;;;;;15.03;72.17;92691.47;2055620;69;20059;-72
2022/05/25 06:53:59;;;;;;;;;;;;;;;15.34;71.49;92685.03;2055590;70;20487;-71
2022/05/25 06:56:24;;;;;;;;;;;;;;;15.41;69.73;92676.13;2055582;70;20454;-69
2022/05/25 06:58:50;;;;;;;;;;;;;;;15.48;70.30;92677.84;2055411;70;20055;-70
2022/05/25 07:01:16;;;;;;;;;;;;;;;15.42;71.74;92680.44;2055434;70;20053;-72
2022/05/25 07:03:41;;;;;;;;;;;;;;;15.55;72.56;92673.19;2055582;70;20497;-71
2022/05/25 07:06:08;;;;;;;;;;;;;;;15.71;70.19;92673.13;2055520;69;20141;-70
2022/05/25 07:08:33;;;;;;;;;;;;;;;16.10;68.71;92677.56;2055541;69;20066;-69
2022/05/25 07:11:00;;;;;;;;;;;;;;;15.73;71.93;92681.75;2055582;69;20058;-70
2022/05/25 07:13:26;;;;;;;;;;;;;;;14.90;74.42;92687.38;2055585;69;20104;-69
2022/05/25 07:15:59;;;;;;;;;;;;;;;15.02;75.46;92692.84;2055574;70;20553;-70
2022/05/25 07:18:26;;;;;;;;;;;;;;;15.71;73.54;92701.50;2055429;70;20090;-70
2022/05/25 07:20:52;;;;;;;;;;;;;;;15.78;72.81;92713.88;2055641;70;20403;-71
2022/05/25 07:23:17;;;;;;;;;;;;;;;15.71;71.10;92707.19;2055503;69;20058;-71
2022/05/25 07:25:42;;;;;;;;;;;;;;;15.39;72.88;92715.03;2055601;70;20070;-70
2022/05/25 07:28:08;;;;;;;;;;;;;;;15.72;71.00;92708.66;2055499;70;20509;-70
2022/05/25 07:30:33;;;;;;;;;;;;;;;15.90;71.48;92726.47;2055605;70;20080;-70
2022/05/25 07:32:59;;;;;;;;;;;;;;;15.66;71.52;92728.25;2055376;70;20051;-71
2022/05/25 07:35:25;;;;;;;;;;;;;;;15.64;70.90;92728.91;2055513;69;20479;-70
2022/05/25 07:37:52;;;;;;;;;;;;;;;15.94;70.39;92723.03;2055470;70;20054;-70
2022/05/25 07:40:38;;;;;;;;;;;;;;;15.59;70.91;92715.91;2068989;69;20050;-70
2022/05/25 07:43:13;;;;;;;;;;;;;;;15.91;70.33;92722.25;2068998;69;20051;-70
2022/05/25 07:45:39;;;;;;;;;;;;;;;15.75;70.21;92730.06;2056106;70;20100;-70
2022/05/25 07:48:04;;;;;;;;;;;;;;;15.87;69.96;92736.25;2056015;69;20058;-70
2022/05/25 07:50:30;;;;;;;;;;;;;;;15.88;70.81;92732.03;2069154;69;20050;-70
2022/05/25 07:52:57;;;;;;;;;;;;;;;16.27;69.21;92713.75;2056096;70;20050;-70
2022/05/25 07:55:23;;;;;;;;;;;;;;;15.69;69.43;92724.88;2055945;69;20214;-70
2022/05/25 07:57:48;;;;;;;;;;;;;;;15.72;68.71;92715.06;2055985;70;20481;-70
2022/05/25 08:00:15;;;;;;;;;;;;;;;15.78;68.35;92725.94;2056045;70;20078;-74
2022/05/25 08:08:20;;;;;;;;;;;;;;;16.01;67.24;92725.50;2056162;70;20459;-73
2022/05/25 08:10:52;;;;;;;;;;;;;;;16.73;65.64;92722.66;2055956;70;20060;-73
2022/05/25 08:13:17;;;;;;;;;;;;;;;16.93;66.63;92723.44;2055926;70;20077;-73
2022/05/25 08:15:44;;;;;;;;;;;;;;;17.13;66.54;92726.28;2068692;69;20478;-73
2022/05/25 08:21:38;;;;;;;;;;;;;;;16.97;66.89;92742.75;2055914;69;20057;-72
2022/05/25 08:24:03;;;;;;;;;;;;;;;16.95;66.10;92751.19;2056033;70;20074;-72
2022/05/25 08:26:29;;;;;;;;;;;;;;;16.29;66.76;92747.19;2055862;70;20497;-72
2022/05/25 08:28:54;;;;;;;;;;;;;;;16.59;66.62;92742.72;2055892;70;20050;-73
2022/05/25 08:31:20;;;;;;;;;;;;;;;16.73;65.38;92756.78;2055984;70;20050;-72
2022/05/25 08:33:45;;;;;;;;;;;;;;;16.74;65.91;92758.97;2055794;70;20058;-73
2022/05/25 08:36:11;;;;;;;;;;;;;;;16.78;66.50;92758.38;2055844;69;20466;-72
2022/05/25 08:38:36;;;;;;;;;;;;;;;16.17;68.90;92758.75;2055836;70;20556;-73
2022/05/25 08:41:02;;;;;;;;;;;;;;;16.38;68.44;92757.50;2055841;70;20494;-71
2022/05/25 08:43:47;;;;;;;;;;;;;;;16.88;66.77;92755.22;2055864;69;20480;-72
2022/05/25 08:46:16;;;;;;;;;;;;;;;16.74;67.39;92755.38;2055786;69;20076;-73
2022/05/25 08:48:42;;;;;;;;;;;;;;;16.88;66.63;92747.41;2055776;69;20046;-73
2022/05/25 08:51:10;;;;;;;;;;;;;;;16.91;67.01;92751.78;2055747;70;20085;-73
2022/05/25 08:53:35;;;;;;;;;;;;;;;16.81;66.78;92745.69;2055658;70;20058;-71
2022/05/25 08:56:20;;;;;;;;;;;;;;;17.16;65.14;92741.31;2055574;70;20175;-72
2022/05/25 08:58:47;;;;;;;;;;;;;;;17.07;65.33;92745.25;2055835;70;20046;-71
2022/05/25 09:01:14;;;;;;;;;;;;;;;17.01;65.11;92746.50;2068830;69;20525;-73
2022/05/25 09:03:55;;;;;;;;;;;;;;;17.05;64.98;92748.03;2055736;70;20051;-73
2022/05/25 09:06:23;;;;;;;;;;;;;;;17.30;64.42;92747.53;2055777;69;20203;-74
2022/05/25 09:09:04;;;;;;;;;;;;;;;17.24;64.47;92747.31;2068780;69;20141;-73
2022/05/25 09:11:34;;;;;;;;;;;;;;;17.53;64.64;92746.22;2055817;70;20415;-72
2022/05/25 09:14:02;;;;;;;;;;;;;;;17.03;65.90;92745.81;2068712;69;20561;-71
2022/05/25 09:16:30;;;;;;;;;;;;;;;17.30;66.02;92746.81;2055689;69;20051;-72
2022/05/25 09:19:01;;;;;;;;;;;;;;;17.18;65.96;92738.53;2055620;70;20050;-72
2022/05/25 09:21:33;;;;;;;;;;;;;;;17.66;64.71;92739.59;2068787;69;20093;-72
2022/05/25 09:24:01;;;;;;;;;;;;;;;18.37;64.58;92737.69;2055751;69;20502;-73
2022/05/25 09:26:26;;;;;;;;;;;;;;;18.55;63.79;92749.69;2055721;70;20053;-73
2022/05/25 09:28:54;;;;;;;;;;;;;;;19.03;62.02;92766.91;2068717;69;20050;-72
2022/05/25 09:31:31;;;;;;;;;;;;;;;19.02;62.74;92765.44;2055768;70;20057;-73
2022/05/25 09:34:00;;;;;;;;;;;;;;;19.04;60.60;92763.38;2055812;70;20058;-75
2022/05/25 09:36:27;;;;;;;;;;;;;;;18.70;61.26;92765.91;2055792;69;20049;-75
2022/05/25 09:38:53;;;;;;;;;;;;;;;18.98;60.18;92774.59;2055772;69;20061;-75
2022/05/25 09:41:21;;;;;;;;;;;;;;;18.02;61.86;92770.75;2055799;70;20051;-73
2022/05/25 09:43:54;;;;;;;;;;;;;;;18.75;59.93;92773.19;2055987;69;20054;-75
2022/05/25 09:46:26;;;;;;;;;;;;;;;18.57;60.91;92766.88;2055728;70;20517;-72
2022/05/25 09:48:59;;;;;;;;;;;;;;;18.59;59.82;92774.75;2055747;69;20093;-74
2022/05/25 09:51:33;;;;;;;;;;;;;;;18.37;61.30;92766.19;2055728;70;20518;-73
2022/05/25 09:54:00;;;;;;;;;;;;;;;18.22;61.04;92759.31;2055690;70;20058;-73
2022/05/25 09:56:32;;;;;;;;;;;;;;;17.98;62.30;92779.88;2055750;70;20149;-73
2022/05/25 09:59:00;;;;;;;;;;;;;;;18.01;62.91;92775.00;2055699;70;20090;-73
2022/05/25 10:01:43;;;;;;;;;;;;;;;18.65;60.65;92772.84;2055672;69;20118;-72
2022/05/25 10:04:10;;;;;;;;;;;;;;;18.78;59.81;92777.56;2055457;70;20047;-71
2022/05/25 10:06:52;;;;;;;;;;;;;;;19.05;59.10;92779.09;2068512;69;20463;-72
2022/05/25 10:09:18;;;;;;;;;;;;;;;19.39;58.49;92781.53;2055808;70;20074;-72
2022/05/25 10:11:57;;;;;;;;;;;;;;;19.46;57.76;92780.31;2055704;70;20158;-72
2022/05/25 10:14:26;;;;;;;;;;;;;;;19.29;58.07;92779.13;2055668;69;20084;-73
2022/05/25 10:16:53;;;;;;;;;;;;;;;19.73;56.87;92787.53;2055683;70;20051;-73
2022/05/25 10:19:19;;;;;;;;;;;;;;;19.81;56.87;92781.31;2055556;69;20054;-72
2022/05/25 10:21:52;;;;;;;;;;;;;;;19.96;55.45;92788.16;2055645;69;20209;-72
2022/05/25 10:24:25;;;;;;;;;;;;;;;20.01;56.95;92786.84;2055680;70;20054;-73
2022/05/25 10:26:52;;;;;;;;;;;;;;;19.65;55.80;92789.41;2055627;69;20057;-73
2022/05/25 10:37:54;;;;;;;;;;;;;;;19.26;54.75;92771.16;2055822;70;20069;-72
2022/05/25 10:40:21;;;;;;;;;;;;;;;18.96;55.91;92773.81;2068680;69;20061;-72
2022/05/25 10:42:47;;;;;;;;;;;;;;;19.26;55.56;92780.44;2055840;70;20560;-72
2022/05/25 10:45:24;;;;;;;;;;;;;;;19.60;55.70;92779.25;2055725;70;20054;-72
2022/05/25 10:47:52;;;;;;;;;;;;;;;19.50;58.04;92774.72;2055615;69;20054;-71
2022/05/25 10:50:21;;;;;;;;;;;;;;;19.76;57.28;92783.34;2068567;69;20057;-71
2022/05/25 10:52:53;;;;;;;;;;;;;;;19.81;57.53;92772.75;2055615;69;20058;-70
2022/05/25 10:55:18;;;;;;;;;;;;;;;19.81;56.16;92769.91;2055593;70;20058;-71
2022/05/25 10:57:49;;;;;;;;;;;;;;;20.00;56.19;92777.56;2055586;70;20069;-74
2022/05/25 11:00:19;;;;;;;;;;;;;;;20.46;58.10;92774.47;2055710;70;20070;-74
2022/05/25 11:02:56;;;;;;;;;;;;;;;21.18;56.29;92767.63;2055568;69;20073;-73
2022/05/25 11:05:23;;;;;;;;;;;;;;;21.44;54.92;92768.22;2055542;70;20054;-73
2022/05/25 11:07:51;;;;;;;;;;;;;;;21.59;53.48;92768.53;2055557;70;20047;-73
2022/05/25 11:10:24;;;;;;;;;;;;;;;21.27;52.69;92775.69;2055554;70;20058;-72
2022/05/25 11:13:11;;;;;;;;;;;;;;;21.37;52.79;92780.94;2055528;69;20054;-69
2022/05/25 11:15:53;;;;;;;;;;;;;;;22.45;50.05;92774.53;2055541;69;20061;-74
2022/05/25 11:18:37;;;;;;;;;;;;;;;23.26;46.83;92775.13;2055286;70;20061;-71
2022/05/25 11:21:06;;;;;;;;;;;;;;;23.24;47.53;92768.63;2054411;69;20054;-73
2022/05/25 11:23:34;;;;;;;;;;;;;;;23.36;46.94;92768.06;2055026;69;20142;-74
2022/05/25 11:26:00;;;;;;;;;;;;;;;22.77;47.25;92777.22;2068347;69;20511;-72
2022/05/25 11:28:34;;;;;;;;;;;;;;;22.56;48.78;92772.56;2055319;70;20501;-71
2022/05/25 11:31:03;;;;;;;;;;;;;;;21.96;45.70;92770.00;2055440;70;20054;-71
2022/05/25 11:37:05;;;;;;;;;;;;;;;21.65;48.58;92769.38;2055412;69;20111;-71
2022/05/25 11:39:46;;;;;;;;;;;;;;;21.76;47.31;92761.69;2068484;69;20068;-71
2022/05/25 11:42:31;;;;;;;;;;;;;;;21.50;47.74;92765.47;2054723;70;20050;-73
2022/05/25 11:45:08;;;;;;;;;;;;;;;22.00;47.97;92767.22;2055138;70;20426;-72
2022/05/25 11:47:52;;;;;;;;;;;;;;;22.12;46.56;92761.00;2068149;69;20433;-74
2022/05/25 11:50:21;;;;;;;;;;;;;;;22.04;49.05;92759.41;2055219;70;20493;-74
2022/05/25 11:52:58;;;;;;;;;;;;;;;22.13;48.62;92765.31;2055315;70;20120;-75
2022/05/25 11:59:11;;;;;;;;;;;;;;;21.49;50.75;92774.78;2055459;69;20127;-71
2022/05/25 12:01:36;;;;;;;;;;;;;;;20.98;49.40;92771.47;2055584;70;20050;-71
2022/05/25 12:04:02;;;;;;;;;;;;;;;20.98;50.49;92776.44;2055173;70;20119;-72
2022/05/25 12:06:30;;;;;;;;;;;;;;;20.82;50.17;92768.22;2055293;70;20058;-71
2022/05/25 12:09:14;;;;;;;;;;;;;;;19.82;52.01;92771.34;2055233;70;20696;-70
2022/05/25 12:11:50;;;;;;;;;;;;;;;20.51;50.60;92773.19;2055438;70;20055;-71
2022/05/25 12:17:49;;;;;;;;;;;;;;;19.94;52.12;92780.25;2055271;69;20069;-71
2022/05/25 12:20:20;;;;;;;;;;;;;;;19.34;53.45;92782.09;2055191;70;20586;-71
2022/05/25 12:22:50;;;;;;;;;;;;;;;19.64;52.04;92788.69;2055288;69;20518;-72
2022/05/25 12:25:16;;;;;;;;;;;;;;;19.41;52.71;92783.72;2068444;69;20402;-72
2022/05/25 12:27:47;;;;;;;;;;;;;;;19.95;51.93;92778.84;2055948;69;20509;-71
2022/05/25 12:30:17;;;;;;;;;;;;;;;20.49;50.54;92786.72;2055798;70;20058;-71
2022/05/25 12:32:43;;;;;;;;;;;;;;;19.85;49.72;92786.44;2055645;69;20119;-71
2022/05/25 12:35:11;;;;;;;;;;;;;;;20.59;50.29;92786.25;2055773;70;20082;-71
2022/05/25 12:37:40;;;;;;;;;;;;;;;19.75;50.19;92790.47;2055700;70;20058;-71
2022/05/25 12:40:07;;;;;;;;;;;;;;;20.42;49.42;92787.94;2055650;70;20074;-75
2022/05/25 12:42:34;;;;;;;;;;;;;;;20.26;47.69;92791.84;2055623;69;20061;-75
2022/05/25 12:48:31;;;;;;;;;;;;;;;21.02;46.06;92788.72;2055675;69;20037;-71
2022/05/25 12:51:05;;;;;;;;;;;;;;;21.38;46.68;92788.13;2068632;69;20107;-71
2022/05/25 12:53:37;;;;;;;;;;;;;;;21.80;46.86;92785.44;2055608;70;20495;-72
2022/05/25 12:56:02;;;;;;;;;;;;;;;20.61;46.18;92787.00;2055686;70;20086;-71
2022/05/25 12:58:31;;;;;;;;;;;;;;;21.52;44.58;92782.69;2055465;69;20093;-73
2022/05/25 13:01:20;;;;;;;;;;;;;;;21.45;45.19;92781.13;2055518;70;20061;-72
2022/05/25 13:03:45;;;;;;;;;;;;;;;22.72;44.67;92777.81;2055749;69;20486;-74
2022/05/25 13:06:11;;;;;;;;;;;;;;;22.49;44.59;92780.31;2055580;70;20136;-75
2022/05/25 13:08:45;;;;;;;;;;;;;;;21.47;45.27;92789.03;2055724;70;20593;-72
2022/05/25 13:11:30;;;;;;;;;;;;;;;22.35;44.24;92774.31;2055603;70;20054;-73
2022/05/25 13:13:56;;;;;;;;;;;;;;;21.12;45.52;92779.66;2055448;70;20080;-74
2022/05/25 13:16:40;;;;;;;;;;;;;;;20.86;45.51;92773.31;2055507;70;20126;-75
2022/05/25 13:19:14;;;;;;;;;;;;;;;21.74;43.83;92773.13;2055456;70;20078;-75
2022/05/25 13:21:41;;;;;;;;;;;;;;;21.78;43.01;92773.22;2055539;69;20057;-73
2022/05/25 13:24:19;;;;;;;;;;;;;;;22.10;43.43;92776.00;2055585;70;20054;-73
2022/05/25 13:27:06;;;;;;;;;;;;;;;21.11;41.48;92781.03;2055137;69;20073;-74
2022/05/25 13:29:37;;;;;;;;;;;;;;;21.43;43.19;92783.22;2055527;70;20170;-71
2022/05/25 13:32:26;;;;;;;;;;;;;;;20.95;43.98;92780.69;2055637;69;20054;-71
2022/05/25 13:34:52;;;;;;;;;;;;;;;20.64;43.48;92788.53;2055563;69;20065;-72
2022/05/25 13:37:17;;;;;;;;;;;;;;;20.83;45.64;92771.81;2055340;70;20042;-70
2022/05/25 13:39:43;;;;;;;;;;;;;;;20.41;46.04;92772.19;2055393;70;20043;-69
2022/05/25 13:42:12;;;;;;;;;;;;;;;20.05;47.21;92784.84;2055516;69;20061;-72
2022/05/25 13:44:43;;;;;;;;;;;;;;;20.69;46.23;92777.91;2055626;69;20133;-70
2022/05/25 13:47:15;;;;;;;;;;;;;;;20.38;46.89;92782.81;2055657;70;20046;-70
2022/05/25 13:49:49;;;;;;;;;;;;;;;20.25;47.79;92784.66;2068542;69;20051;-69
2022/05/25 13:52:17;;;;;;;;;;;;;;;20.46;48.33;92785.19;2055479;70;20054;-70
2022/05/25 13:54:45;;;;;;;;;;;;;;;20.21;47.43;92786.69;2055410;70;20145;-69
2022/05/25 13:57:31;;;;;;;;;;;;;;;20.20;46.52;92791.66;2055500;69;20111;-70
2022/05/25 13:59:59;;;;;;;;;;;;;;;20.36;46.92;92790.63;2055487;70;20053;-72
2022/05/25 14:02:29;;;;;;;;;;;;;;;19.91;47.52;92795.16;2055505;69;20098;-70
2022/05/25 14:04:59;;;;;;;;;;;;;;;20.32;48.43;92788.41;2055524;70;20062;-72
2022/05/25 14:07:32;;;;;;;;;;;;;;;20.16;49.16;92785.09;2055558;69;20107;-71
2022/05/25 14:12:53;;;;;;;;;;;;;;;20.55;47.33;92792.59;2055596;70;20558;-71
2022/05/25 14:15:20;;;;;;;;;;;;;;;20.01;48.39;92793.28;2055543;69;20145;-71